Time;durP1;ratioP1;P1;durP2;ratioP2;P2;SDS_P1;SDS_P2;PMS_P1;PMS_P2;Temp;Humidity;BMP_temperature;BMP_pressure;BME280_temperature;BME280_humidity;BME280_pressure;Samples;Min_cycle;Max_cycle;Signal;HPM_P1;HPM_P2
2024/04/07 00:00:26;;;;;;;2.70;1.70;;;23.10;68.60;;;;;;5077695;28;20190;-72
2024/04/07 00:02:55;;;;;;;3.03;1.80;;;23.10;68.90;;;;;;5075217;28;20219;-71
2024/04/07 00:05:23;;;;;;;6.37;1.60;;;23.30;68.90;;;;;;5075552;28;20222;-72
2024/04/07 00:07:50;;;;;;;3.03;1.97;;;23.50;68.40;;;;;;5074203;28;20703;-72
2024/04/07 00:10:17;;;;;;;3.30;1.50;;;23.40;68.10;;;;;;5075077;28;20510;-73
2024/04/07 00:12:48;;;;;;;1.50;1.40;;;23.50;67.10;;;;;;5075250;28;20613;-72
2024/04/07 00:15:15;;;;;;;2.43;1.60;;;23.60;67.30;;;;;;5076935;28;20183;-73
2024/04/07 00:17:46;;;;;;;3.20;1.47;;;23.80;67.30;;;;;;5059561;28;20183;-71
2024/04/07 00:20:13;;;;;;;2.40;1.40;;;23.90;65.80;;;;;;5069605;28;20194;-71
2024/04/07 00:22:41;;;;;;;3.50;1.60;;;23.90;64.70;;;;;;5071757;28;20256;-71
2024/04/07 00:25:08;;;;;;;2.43;1.60;;;24.10;64.70;;;;;;5073283;28;20187;-72
2024/04/07 00:27:35;;;;;;;1.13;1.03;;;24.30;64.60;;;;;;5073456;28;20222;-71
2024/04/07 00:30:03;;;;;;;1.90;1.30;;;24.50;63.80;;;;;;5079415;28;20274;-71
2024/04/07 00:32:31;;;;;;;1.73;1.30;;;24.60;62.70;;;;;;5073813;28;20191;-72
2024/04/07 00:34:58;;;;;;;1.83;1.50;;;24.80;62.80;;;;;;5077716;28;20193;-72
2024/04/07 00:37:28;;;;;;;1.93;1.33;;;24.80;62.90;;;;;;5073664;28;20703;-71
2024/04/07 00:39:59;;;;;;;3.10;1.20;;;24.90;60.80;;;;;;5076229;28;20309;-71
2024/04/07 00:42:26;;;;;;;4.17;1.70;;;25.00;60.00;;;;;;5077775;28;20237;-71
2024/04/07 00:44:53;;;;;;;2.00;1.40;;;24.90;60.80;;;;;;5074013;28;20187;-71
2024/04/07 00:47:21;;;;;;;2.63;1.37;;;25.20;59.60;;;;;;5081987;28;20863;-69
2024/04/07 00:49:48;;;;;;;2.27;1.10;;;25.20;60.10;;;;;;5080502;28;20555;-72
2024/04/07 00:52:16;;;;;;;1.10;1.00;;;25.30;59.20;;;;;;5085403;28;20202;-71
2024/04/07 00:54:44;;;;;;;1.97;1.07;;;25.30;58.00;;;;;;5073765;28;20188;-72
2024/04/07 00:57:12;;;;;;;4.13;1.03;;;25.30;58.60;;;;;;5085029;28;20653;-71
2024/04/07 00:59:39;;;;;;;4.27;1.10;;;25.30;58.00;;;;;;5075874;28;20218;-74
2024/04/07 01:02:08;;;;;;;3.57;0.90;;;25.60;57.20;;;;;;5081648;28;20203;-72
2024/04/07 01:04:36;;;;;;;2.07;1.20;;;25.80;56.20;;;;;;5077583;28;20190;-71
2024/04/07 01:07:03;;;;;;;1.47;0.90;;;25.80;56.80;;;;;;5079096;28;20215;-72
2024/04/07 01:09:31;;;;;;;1.37;1.00;;;25.80;56.50;;;;;;5075043;28;20175;-74
2024/04/07 01:11:59;;;;;;;1.73;0.93;;;26.00;56.00;;;;;;5078872;28;20235;-71
2024/04/07 01:14:26;;;;;;;0.90;0.80;;;26.00;55.10;;;;;;5075629;28;20184;-72
2024/04/07 01:16:53;;;;;;;1.27;0.87;;;25.80;55.30;;;;;;5081363;28;20221;-72
2024/04/07 01:19:20;;;;;;;2.33;0.90;;;26.00;55.30;;;;;;5078913;28;20183;-72
2024/04/07 01:21:48;;;;;;;1.70;0.70;;;26.30;54.40;;;;;;5074487;28;20268;-72
2024/04/07 01:24:15;;;;;;;1.20;1.10;;;26.60;53.10;;;;;;5072573;28;20199;-72
2024/04/07 01:26:42;;;;;;;1.50;0.90;;;26.60;54.30;;;;;;5066322;28;20268;-72
2024/04/07 01:29:10;;;;;;;2.60;0.80;;;26.60;52.30;;;;;;5075516;28;20191;-72
2024/04/07 01:31:37;;;;;;;2.77;0.80;;;26.40;52.20;;;;;;5072195;28;20293;-72
2024/04/07 01:34:04;;;;;;;0.60;0.60;;;26.30;52.10;;;;;;5073370;28;20183;-73
2024/04/07 01:36:33;;;;;;;0.70;0.70;;;26.50;50.20;;;;;;5075144;28;20187;-72
2024/04/07 01:39:00;;;;;;;0.77;0.77;;;26.60;50.20;;;;;;5069668;28;20230;-73
2024/04/07 01:41:28;;;;;;;0.93;0.77;;;26.70;52.20;;;;;;5073324;28;21525;-74
2024/04/07 01:43:55;;;;;;;0.83;0.70;;;26.90;50.40;;;;;;5074523;28;20186;-71
2024/04/07 01:46:22;;;;;;;0.80;0.70;;;27.20;49.80;;;;;;5070659;28;20210;-71
2024/04/07 01:48:49;;;;;;;3.17;1.00;;;27.00;49.90;;;;;;5073302;28;20547;-74
2024/04/07 01:51:17;;;;;;;1.07;0.60;;;27.10;50.00;;;;;;5073821;28;20660;-74
2024/04/07 01:53:44;;;;;;;2.80;0.73;;;27.10;50.40;;;;;;5075067;28;20249;-73
2024/04/07 01:56:11;;;;;;;2.60;0.80;;;27.50;49.00;;;;;;5073486;28;20186;-71
2024/04/07 01:58:38;;;;;;;1.50;0.70;;;27.50;49.60;;;;;;5073612;28;20614;-70
2024/04/07 02:01:06;;;;;;;0.87;0.70;;;27.80;48.80;;;;;;5073807;28;20191;-73
2024/04/07 02:03:33;;;;;;;1.13;0.80;;;27.90;48.20;;;;;;5069798;28;20289;-73
2024/04/07 02:06:01;;;;;;;3.60;0.60;;;27.90;47.60;;;;;;5069873;28;20233;-73
2024/04/07 02:08:28;;;;;;;1.27;0.70;;;28.30;47.50;;;;;;5071182;28;20175;-74
2024/04/07 02:10:55;;;;;;;1.03;0.80;;;28.30;48.00;;;;;;5070878;28;20194;-72
2024/04/07 02:13:23;;;;;;;2.00;0.80;;;28.40;46.90;;;;;;5076779;28;20583;-72
2024/04/07 02:15:50;;;;;;;1.37;0.77;;;28.50;46.00;;;;;;5073362;28;20205;-72
2024/04/07 02:18:17;;;;;;;1.50;0.90;;;28.30;46.70;;;;;;5070702;28;20273;-74
2024/04/07 02:20:54;;;;;;;0.50;0.50;;;28.30;47.90;;;;;;5076195;28;20321;-72
2024/04/07 02:23:21;;;;;;;2.17;0.83;;;28.30;46.90;;;;;;5074584;28;20522;-71
2024/04/07 02:25:48;;;;;;;0.90;0.70;;;28.00;46.60;;;;;;5071782;28;20216;-73
2024/04/07 02:28:16;;;;;;;2.17;1.07;;;28.50;46.70;;;;;;5071916;28;20210;-72
2024/04/07 02:30:43;;;;;;;3.00;0.80;;;28.90;46.00;;;;;;5078043;28;20197;-71
2024/04/07 02:33:11;;;;;;;1.10;0.70;;;29.30;45.30;;;;;;5076172;28;20179;-73
2024/04/07 02:35:40;;;;;;;2.67;0.90;;;29.90;44.80;;;;;;5073430;28;20186;-71
2024/04/07 02:38:09;;;;;;;1.10;0.80;;;30.40;42.70;;;;;;5070469;28;20210;-71
2024/04/07 02:40:36;;;;;;;1.53;0.90;;;30.30;42.60;;;;;;5069595;28;20714;-74
2024/04/07 02:43:04;;;;;;;1.27;0.90;;;30.30;43.40;;;;;;5056493;28;20225;-73
2024/04/07 02:48:16;;;;;;;0.90;0.80;;;29.50;44.30;;;;;;5077854;28;20591;-74
2024/04/07 02:50:43;;;;;;;3.33;1.00;;;29.50;44.60;;;;;;5082602;28;20186;-74
2024/04/07 02:53:11;;;;;;;3.58;0.88;;;29.70;43.70;;;;;;5075986;28;20183;-75
2024/04/07 02:55:38;;;;;;;3.28;0.93;;;30.10;43.60;;;;;;5066215;28;20209;-72
2024/04/07 02:58:05;;;;;;;2.20;0.90;;;30.50;42.50;;;;;;5075235;28;20224;-71
2024/04/07 03:00:33;;;;;;;1.40;0.80;;;30.10;43.20;;;;;;5081951;28;20191;-70
2024/04/07 03:03:00;;;;;;;1.17;0.90;;;30.40;43.30;;;;;;5080126;28;20639;-70
2024/04/07 03:05:27;;;;;;;3.50;0.98;;;30.10;43.10;;;;;;5071218;28;20550;-72
2024/04/07 03:07:54;;;;;;;0.80;0.80;;;30.60;41.80;;;;;;5077250;28;20580;-71
2024/04/07 03:10:22;;;;;;;1.63;1.15;;;30.40;42.50;;;;;;5067536;28;20669;-72
2024/04/07 03:12:49;;;;;;;0.75;0.75;;;29.90;43.30;;;;;;5073185;28;20182;-70
2024/04/07 03:15:16;;;;;;;1.83;1.00;;;30.00;42.00;;;;;;5074526;28;20182;-73
2024/04/07 03:17:44;;;;;;;1.55;0.85;;;30.60;41.50;;;;;;5073584;28;20320;-73
2024/04/07 03:20:12;;;;;;;0.75;0.73;;;31.30;40.80;;;;;;5071512;28;20180;-79
2024/04/07 03:22:40;;;;;;;1.85;1.05;;;31.30;40.50;;;;;;5070130;28;20211;-72
2024/04/07 03:25:07;;;;;;;3.05;1.20;;;30.60;44.40;;;;;;5070288;28;20224;-71
2024/04/07 03:27:34;;;;;;;2.42;1.30;;;30.60;44.80;;;;;;5073983;28;20179;-73
2024/04/07 03:30:02;;;;;;;4.95;1.38;;;30.50;45.70;;;;;;5070339;28;20190;-73
2024/04/07 03:32:29;;;;;;;1.70;1.00;;;30.60;45.90;;;;;;5072389;28;22185;-72
2024/04/07 03:34:57;;;;;;;3.17;1.40;;;30.30;45.60;;;;;;5068132;28;20630;-72
2024/04/07 03:37:24;;;;;;;3.47;1.42;;;30.20;46.70;;;;;;5075367;28;20182;-72
2024/04/07 03:39:52;;;;;;;5.45;1.38;;;29.80;46.60;;;;;;5071949;28;20227;-72
2024/04/07 03:42:19;;;;;;;1.90;0.90;;;30.10;46.30;;;;;;5074228;28;20230;-70
2024/04/07 03:44:49;;;;;;;1.52;1.00;;;30.00;45.50;;;;;;5060134;28;20195;-72
2024/04/07 03:47:17;;;;;;;3.35;1.20;;;29.40;48.00;;;;;;5073603;28;20645;-71
2024/04/07 03:49:44;;;;;;;3.67;1.33;;;29.10;49.70;;;;;;5074698;28;20645;-72
2024/04/07 03:52:11;;;;;;;3.15;1.50;;;28.80;49.80;;;;;;5072877;28;20206;-71
2024/04/07 03:54:38;;;;;;;1.80;1.13;;;28.90;49.20;;;;;;5069868;28;20274;-73
2024/04/07 03:57:06;;;;;;;5.05;1.33;;;29.00;49.30;;;;;;5072327;28;20587;-72
2024/04/07 03:59:33;;;;;;;3.75;1.30;;;29.40;49.40;;;;;;5074164;28;20178;-70
2024/04/07 04:02:01;;;;;;;3.88;1.67;;;29.70;48.10;;;;;;5067680;28;20206;-71
2024/04/07 04:04:32;;;;;;;2.70;1.30;;;30.10;48.10;;;;;;5072170;28;20218;-71
2024/04/07 04:07:00;;;;;;;5.55;1.50;;;29.60;48.30;;;;;;5056745;28;20642;-70
2024/04/07 04:09:28;;;;;;;2.20;1.27;;;30.10;48.00;;;;;;5073392;28;20182;-71
2024/04/07 04:11:55;;;;;;;6.03;1.63;;;29.90;47.60;;;;;;5073066;28;20645;-72
2024/04/07 04:14:22;;;;;;;3.28;1.40;;;30.00;47.40;;;;;;5079271;28;20183;-71
2024/04/07 04:16:50;;;;;;;3.33;1.08;;;30.10;47.20;;;;;;5074919;28;20623;-72
2024/04/07 04:19:18;;;;;;;7.15;1.20;;;30.10;47.50;;;;;;5075316;28;20190;-70
2024/04/07 04:21:45;;;;;;;3.85;1.30;;;30.10;46.60;;;;;;5079983;28;20225;-71
2024/04/07 04:24:13;;;;;;;3.97;1.20;;;29.80;47.30;;;;;;5074646;28;20186;-71
2024/04/07 04:26:40;;;;;;;6.68;1.38;;;29.90;46.60;;;;;;5093525;28;20512;-70
2024/04/07 04:29:08;;;;;;;2.58;0.95;;;29.90;46.90;;;;;;5069940;28;20267;-70
2024/04/07 04:31:35;;;;;;;3.28;1.40;;;30.40;45.60;;;;;;5073106;28;20179;-70
2024/04/07 04:34:02;;;;;;;3.63;1.17;;;31.00;44.50;;;;;;5072724;28;20246;-72
2024/04/07 04:36:30;;;;;;;3.25;1.50;;;30.50;45.00;;;;;;5077824;28;20554;-71
2024/04/07 04:38:57;;;;;;;2.38;1.40;;;29.50;47.60;;;;;;5073251;28;20215;-71
2024/04/07 04:41:24;;;;;;;5.22;1.55;;;29.40;49.10;;;;;;5074375;28;20199;-70
2024/04/07 04:43:52;;;;;;;3.20;1.60;;;29.70;48.20;;;;;;5074292;28;20191;-71
2024/04/07 04:46:19;;;;;;;3.72;1.60;;;29.10;48.90;;;;;;5072282;28;20283;-70
2024/04/07 04:48:47;;;;;;;2.50;1.10;;;28.50;50.80;;;;;;5073010;28;20282;-73
2024/04/07 04:51:15;;;;;;;4.37;1.30;;;27.90;51.10;;;;;;5076769;28;20194;-73
2024/04/07 04:53:42;;;;;;;6.90;1.60;;;27.70;52.50;;;;;;5078042;28;20243;-71
2024/04/07 04:56:10;;;;;;;5.63;1.30;;;28.20;51.10;;;;;;5073580;28;20171;-72
2024/04/07 04:58:37;;;;;;;2.43;1.47;;;28.00;51.20;;;;;;5074068;28;20195;-71
2024/04/07 05:01:16;;;;;;;3.33;1.07;;;27.70;52.70;;;;;;5073490;28;20654;-73
2024/04/07 05:03:45;;;;;;;4.73;1.00;;;26.90;54.20;;;;;;5074989;28;20220;-72
2024/04/07 05:06:14;;;;;;;2.93;1.23;;;26.90;54.30;;;;;;5072864;28;20184;-71
2024/04/07 05:08:42;;;;;;;2.87;1.13;;;26.80;55.60;;;;;;5061424;28;20190;-71
2024/04/07 05:11:10;;;;;;;4.03;1.13;;;26.80;55.60;;;;;;5075859;28;20179;-70
2024/04/07 05:13:38;;;;;;;4.17;1.60;;;26.90;55.30;;;;;;5079093;28;20210;-70
2024/04/07 05:16:06;;;;;;;1.33;1.10;;;26.80;55.00;;;;;;5076929;28;20202;-71
2024/04/07 05:18:34;;;;;;;5.13;1.13;;;26.90;55.50;;;;;;5080344;28;20267;-75
2024/04/07 05:21:09;;;;;;;1.73;0.97;;;26.90;54.90;;;;;;5077878;28;20183;-73
2024/04/07 05:23:44;;;;;;;3.20;1.23;;;26.80;55.20;;;;;;5076529;28;20182;-71
2024/04/07 05:26:24;;;;;;;2.30;1.10;;;26.90;54.90;;;;;;5073979;28;20187;-70
2024/04/07 05:28:51;;;;;;;2.37;1.07;;;27.10;54.10;;;;;;5079646;28;20199;-72
2024/04/07 05:31:18;;;;;;;7.80;1.30;;;27.00;53.40;;;;;;5077985;28;20215;-71
2024/04/07 05:33:47;;;;;;;5.47;1.20;;;28.00;51.30;;;;;;5075260;28;20268;-73
2024/04/07 05:36:15;;;;;;;2.60;1.20;;;28.40;50.00;;;;;;5073173;28;20195;-71
2024/04/07 05:38:43;;;;;;;2.90;1.13;;;28.70;49.70;;;;;;5075936;28;20626;-73
2024/04/07 05:41:11;;;;;;;2.27;1.20;;;28.70;49.70;;;;;;5074775;28;20199;-71
2024/04/07 05:43:38;;;;;;;1.97;1.03;;;29.10;48.30;;;;;;5074676;28;20677;-70
2024/04/07 05:46:08;;;;;;;3.73;1.20;;;29.70;46.50;;;;;;5074944;28;20244;-71
2024/04/07 05:48:36;;;;;;;2.42;1.10;;;29.70;46.20;;;;;;5071464;28;20186;-72
2024/04/07 05:51:11;;;;;;;2.20;1.30;;;30.40;45.00;;;;;;5077674;28;20186;-71
2024/04/07 05:53:38;;;;;;;2.00;1.00;;;30.80;43.40;;;;;;5076949;28;20194;-72
2024/04/07 05:56:10;;;;;;;4.75;1.17;;;30.80;44.50;;;;;;5077615;28;20187;-72
2024/04/07 05:58:38;;;;;;;2.95;0.80;;;30.10;44.50;;;;;;5078402;28;20847;-71
2024/04/07 06:01:05;;;;;;;3.47;1.27;;;29.00;46.40;;;;;;5077185;28;20187;-73
2024/04/07 06:03:34;;;;;;;2.07;1.20;;;27.90;49.10;;;;;;5057785;28;20269;-72
2024/04/07 06:06:02;;;;;;;1.93;0.93;;;27.60;49.60;;;;;;5057746;28;20265;-72
2024/04/07 06:08:30;;;;;;;3.83;1.30;;;26.90;51.70;;;;;;5082505;28;20265;-71
2024/04/07 06:11:00;;;;;;;2.83;1.43;;;27.00;51.50;;;;;;5080223;28;20190;-71
2024/04/07 06:13:27;;;;;;;2.30;1.10;;;27.60;50.00;;;;;;5084342;28;20183;-71
2024/04/07 06:15:54;;;;;;;3.97;1.47;;;27.20;51.10;;;;;;5075143;28;20650;-73
2024/04/07 06:18:22;;;;;;;5.77;1.23;;;27.00;51.90;;;;;;5074165;28;20179;-71
2024/04/07 06:20:49;;;;;;;6.20;1.40;;;26.60;52.60;;;;;;5079299;28;20175;-75
2024/04/07 06:23:16;;;;;;;4.00;1.23;;;26.40;53.50;;;;;;5076695;28;20218;-74
2024/04/07 06:25:46;;;;;;;2.80;1.07;;;25.90;54.20;;;;;;5079423;28;20189;-73
2024/04/07 06:28:14;;;;;;;5.83;1.30;;;25.80;55.10;;;;;;5079073;28;20179;-72
2024/04/07 06:30:41;;;;;;;1.80;1.00;;;25.60;55.40;;;;;;5080930;28;20224;-73
2024/04/07 06:33:09;;;;;;;3.17;1.57;;;25.50;55.70;;;;;;5076488;28;20285;-73
2024/04/07 06:35:37;;;;;;;3.27;1.10;;;25.40;56.20;;;;;;5079038;28;20183;-72
2024/04/07 06:38:05;;;;;;;1.40;1.10;;;25.40;56.50;;;;;;5073130;28;20190;-71
2024/04/07 06:40:32;;;;;;;3.13;1.03;;;25.40;56.50;;;;;;5081542;28;20194;-72
2024/04/07 06:42:59;;;;;;;4.20;1.00;;;25.20;56.20;;;;;;5082008;28;20219;-71
2024/04/07 06:45:26;;;;;;;1.60;1.00;;;25.10;56.80;;;;;;5080821;28;20186;-71
2024/04/07 06:47:54;;;;;;;1.60;0.97;;;25.10;57.40;;;;;;5075436;28;20187;-71
2024/04/07 06:50:21;;;;;;;3.97;1.23;;;25.00;57.50;;;;;;5080211;28;20517;-72
2024/04/07 06:52:48;;;;;;;6.10;1.27;;;24.90;57.10;;;;;;5098055;28;20221;-71
2024/04/07 06:55:16;;;;;;;3.63;1.30;;;24.80;57.80;;;;;;5077603;28;20175;-72
2024/04/07 06:57:44;;;;;;;4.10;1.20;;;24.80;58.00;;;;;;5080547;28;20619;-71
2024/04/07 07:00:13;;;;;;;3.27;1.03;;;24.80;57.80;;;;;;5079367;28;20179;-70
2024/04/07 07:02:41;;;;;;;2.57;1.27;;;24.80;57.50;;;;;;5059746;28;20232;-72
2024/04/07 07:05:09;;;;;;;2.43;1.20;;;24.70;57.70;;;;;;5080565;28;20183;-72
2024/04/07 07:07:37;;;;;;;9.53;1.47;;;24.70;57.50;;;;;;5078414;28;20636;-73
2024/04/07 07:10:05;;;;;;;4.57;1.30;;;24.70;57.60;;;;;;5078259;28;20217;-72
2024/04/07 07:12:33;;;;;;;4.00;1.30;;;24.80;57.20;;;;;;5076391;28;20179;-73
2024/04/07 07:15:00;;;;;;;3.00;1.37;;;24.80;58.00;;;;;;5071289;28;20208;-72
2024/04/07 07:17:27;;;;;;;6.13;1.30;;;24.80;58.00;;;;;;5075068;28;20186;-74
2024/04/07 07:19:55;;;;;;;4.93;1.37;;;24.80;58.30;;;;;;5081293;28;20209;-73
2024/04/07 07:22:22;;;;;;;5.03;1.40;;;24.80;58.50;;;;;;5075897;28;20211;-73
2024/04/07 07:24:49;;;;;;;4.47;1.67;;;24.80;58.30;;;;;;5078539;28;20179;-74
2024/04/07 07:27:17;;;;;;;2.47;1.43;;;24.80;58.50;;;;;;5077096;28;20676;-73
2024/04/07 07:29:44;;;;;;;2.83;1.40;;;24.70;58.60;;;;;;5080496;28;20201;-73
2024/04/07 07:32:11;;;;;;;1.97;1.23;;;24.60;58.70;;;;;;5072510;28;20179;-74
2024/04/07 07:34:40;;;;;;;4.53;1.30;;;24.50;59.10;;;;;;5075282;28;20629;-72
2024/04/07 07:37:07;;;;;;;3.27;1.47;;;24.50;59.10;;;;;;5075255;28;20213;-73
2024/04/07 07:39:35;;;;;;;2.93;1.30;;;24.40;59.50;;;;;;5078934;28;20294;-70
2024/04/07 07:42:02;;;;;;;2.60;1.13;;;24.30;59.20;;;;;;5075901;28;20211;-73
2024/04/07 07:44:29;;;;;;;3.17;1.30;;;24.30;59.60;;;;;;5076929;28;20263;-73
2024/04/07 07:46:57;;;;;;;2.67;1.20;;;24.30;59.50;;;;;;5077261;28;20195;-72
2024/04/07 07:49:24;;;;;;;2.83;1.20;;;24.30;59.80;;;;;;5060144;28;20183;-71
2024/04/07 07:51:52;;;;;;;2.23;1.23;;;24.30;59.50;;;;;;5078107;28;20179;-72
2024/04/07 07:54:19;;;;;;;4.20;1.17;;;24.30;59.50;;;;;;5079297;28;20233;-72
2024/04/07 07:56:47;;;;;;;2.33;1.30;;;24.30;60.00;;;;;;5078756;28;20312;-72
2024/04/07 07:59:14;;;;;;;4.87;1.70;;;24.30;59.80;;;;;;5079544;28;20183;-71
2024/04/07 08:01:41;;;;;;;4.63;1.67;;;24.20;59.80;;;;;;5076675;28;20261;-71
2024/04/07 08:04:09;;;;;;;4.83;1.33;;;24.20;60.00;;;;;;5075285;28;20187;-71
2024/04/07 08:06:38;;;;;;;4.63;1.30;;;24.20;59.40;;;;;;5068878;28;20265;-73
2024/04/07 08:09:05;;;;;;;4.90;2.00;;;24.10;59.40;;;;;;5069809;28;20256;-72
2024/04/07 08:11:33;;;;;;;3.53;1.23;;;24.10;59.70;;;;;;5070884;28;20187;-73
2024/04/07 08:14:00;;;;;;;2.40;1.30;;;24.10;60.00;;;;;;5067646;28;20195;-72
2024/04/07 08:16:28;;;;;;;2.93;1.60;;;24.10;60.50;;;;;;5078782;28;20201;-71
2024/04/07 08:18:55;;;;;;;4.13;1.30;;;24.10;60.80;;;;;;5072493;28;20221;-73
2024/04/07 08:21:22;;;;;;;3.43;1.17;;;24.10;60.40;;;;;;5079453;28;20236;-72
2024/04/07 08:23:49;;;;;;;3.33;1.30;;;24.10;60.30;;;;;;5069801;28;20183;-71
2024/04/07 08:26:17;;;;;;;2.97;1.50;;;24.00;60.40;;;;;;5079374;28;20171;-71
2024/04/07 08:28:44;;;;;;;1.43;1.20;;;24.10;60.80;;;;;;5069342;28;20232;-70
2024/04/07 08:31:13;;;;;;;5.90;1.47;;;23.90;61.00;;;;;;5078722;28;20636;-71
2024/04/07 08:33:40;;;;;;;4.93;1.40;;;23.90;60.80;;;;;;5074976;28;20187;-71
2024/04/07 08:36:08;;;;;;;2.37;1.27;;;23.90;61.00;;;;;;5062685;28;20608;-73
2024/04/07 08:38:36;;;;;;;2.07;1.20;;;23.80;61.10;;;;;;5076232;28;20231;-73
2024/04/07 08:41:10;;;;;;;3.03;1.17;;;23.80;60.90;;;;;;5082855;28;20266;-72
2024/04/07 08:43:41;;;;;;;3.07;1.17;;;23.70;61.30;;;;;;5075827;28;20228;-71
2024/04/07 08:46:15;;;;;;;2.87;1.07;;;23.60;61.30;;;;;;5071792;28;20582;-72
2024/04/07 08:48:45;;;;;;;2.80;1.53;;;23.60;61.30;;;;;;5073010;28;20187;-72
2024/04/07 08:51:14;;;;;;;9.03;4.83;;;23.50;61.70;;;;;;5086320;28;20194;-72
2024/04/07 08:53:42;;;;;;;13.60;5.33;;;23.50;63.20;;;;;;5075863;28;20188;-72
2024/04/07 08:56:11;;;;;;;12.07;4.83;;;23.50;64.80;;;;;;5084049;28;20183;-71
2024/04/07 08:58:43;;;;;;;9.33;3.80;;;23.50;66.30;;;;;;5077353;28;20282;-71
2024/04/07 09:01:18;;;;;;;8.30;3.60;;;23.40;68.10;;;;;;5078506;28;20187;-73
2024/04/07 09:03:46;;;;;;;9.53;3.17;;;23.40;70.20;;;;;;5056745;28;20191;-71
2024/04/07 09:06:13;;;;;;;9.23;3.27;;;23.30;71.60;;;;;;5081172;28;20621;-72
2024/04/07 09:08:45;;;;;;;9.93;3.53;;;23.30;72.50;;;;;;5075941;28;20183;-71
2024/04/07 09:11:12;;;;;;;7.50;3.50;;;23.20;73.40;;;;;;5081375;28;20209;-70
2024/04/07 09:13:39;;;;;;;9.23;3.40;;;23.10;74.30;;;;;;5078458;28;20189;-71
2024/04/07 09:16:07;;;;;;;10.70;3.60;;;23.00;74.80;;;;;;5076759;28;20699;-71
2024/04/07 09:18:35;;;;;;;10.10;3.70;;;22.90;75.30;;;;;;5080545;28;20287;-72
2024/04/07 09:21:02;;;;;;;7.97;3.00;;;22.90;75.80;;;;;;5079633;28;20207;-71
2024/04/07 09:23:30;;;;;;;8.93;3.93;;;22.80;76.20;;;;;;5094452;28;20259;-72
2024/04/07 09:25:57;;;;;;;8.30;3.50;;;22.80;76.50;;;;;;5078142;28;20222;-72
2024/04/07 09:28:25;;;;;;;6.43;3.07;;;22.80;76.70;;;;;;5080713;28;20256;-72
2024/04/07 09:30:53;;;;;;;9.33;3.10;;;22.70;76.90;;;;;;5083433;28;20197;-71
2024/04/07 09:33:21;;;;;;;11.93;3.50;;;22.70;77.00;;;;;;5079469;28;20179;-72
2024/04/07 09:35:48;;;;;;;10.27;3.50;;;22.60;77.10;;;;;;5097237;28;20187;-71
2024/04/07 09:38:16;;;;;;;9.43;3.70;;;22.60;77.40;;;;;;5081462;28;20270;-72
2024/04/07 09:40:47;;;;;;;9.13;3.73;;;22.60;77.50;;;;;;5081958;28;20568;-72
2024/04/07 09:43:16;;;;;;;7.17;3.47;;;22.50;77.70;;;;;;5081505;28;20215;-72
2024/04/07 09:45:47;;;;;;;11.93;3.60;;;22.50;78.10;;;;;;5079164;28;20190;-72
2024/04/07 09:48:19;;;;;;;8.77;3.83;;;22.50;78.10;;;;;;5081502;28;20206;-72
2024/04/07 09:50:59;;;;;;;7.37;3.47;;;22.40;78.30;;;;;;5083575;28;20249;-71
2024/04/07 09:54:11;;;;;;;10.47;3.87;;;22.40;78.40;;;;;;5079305;28;20175;-72
2024/04/07 09:56:41;;;;;;;10.30;3.60;;;22.30;78.50;;;;;;5046377;28;20187;-72
2024/04/07 09:59:09;;;;;;;7.00;3.77;;;22.30;78.60;;;;;;5079036;28;20190;-72
2024/04/07 10:01:37;;;;;;;8.87;3.60;;;22.20;78.90;;;;;;5075476;28;20210;-73
2024/04/07 10:04:06;;;;;;;7.83;3.33;;;22.20;79.10;;;;;;5076475;28;20180;-72
2024/04/07 10:06:34;;;;;;;14.60;4.00;;;22.20;79.40;;;;;;5080890;28;20243;-72
2024/04/07 10:09:03;;;;;;;8.40;3.90;;;22.20;79.60;;;;;;5081139;28;20175;-72
2024/04/07 10:11:31;;;;;;;10.20;3.73;;;22.20;79.80;;;;;;5080798;28;20182;-72
2024/04/07 10:14:00;;;;;;;11.03;4.77;;;22.20;80.00;;;;;;5081287;28;20193;-72
2024/04/07 10:16:31;;;;;;;8.70;4.33;;;22.10;80.20;;;;;;5087779;28;20186;-71
2024/04/07 10:18:59;;;;;;;10.53;4.40;;;22.10;80.50;;;;;;5062204;28;20182;-72
2024/04/07 10:21:26;;;;;;;8.47;3.83;;;22.10;80.60;;;;;;5082958;28;20197;-72
2024/04/07 10:23:54;;;;;;;10.33;4.60;;;22.10;80.70;;;;;;5080910;28;20194;-72
2024/04/07 10:26:23;;;;;;;14.63;4.47;;;22.00;80.90;;;;;;5071030;28;20187;-72
2024/04/07 10:28:56;;;;;;;7.87;4.00;;;21.90;80.90;;;;;;5084107;28;20278;-72
2024/04/07 10:31:33;;;;;;;7.43;4.33;;;21.90;81.10;;;;;;5085580;28;20182;-73
2024/04/07 10:34:01;;;;;;;10.17;4.20;;;21.80;81.30;;;;;;5099404;28;20191;-72
2024/04/07 10:36:34;;;;;;;7.27;4.27;;;21.80;81.50;;;;;;5082569;28;20187;-72
2024/04/07 10:39:03;;;;;;;7.77;5.00;;;21.80;81.70;;;;;;5084735;28;20222;-72
2024/04/07 10:41:32;;;;;;;10.90;5.27;;;21.80;81.90;;;;;;5089069;28;20851;-72
2024/04/07 10:44:01;;;;;;;7.90;5.50;;;21.70;82.10;;;;;;5080590;28;20191;-72
2024/04/07 10:46:31;;;;;;;9.80;7.33;;;21.60;82.40;;;;;;5081132;28;20190;-73
2024/04/07 10:49:00;;;;;;;16.30;8.23;;;21.60;82.70;;;;;;5078548;28;20213;-73
2024/04/07 10:51:28;;;;;;;15.77;11.27;;;21.50;82.90;;;;;;5087695;28;20244;-73
2024/04/07 10:54:01;;;;;;;21.50;12.37;;;21.50;83.10;;;;;;5080432;28;20646;-73
2024/04/07 10:56:29;;;;;;;17.40;15.07;;;21.40;83.40;;;;;;5078907;28;20186;-72
2024/04/07 10:59:01;;;;;;;21.93;19.70;;;21.40;83.60;;;;;;5061321;28;20712;-73
2024/04/07 11:01:30;;;;;;;24.53;22.50;;;21.30;83.80;;;;;;5092087;28;20179;-72
2024/04/07 11:03:57;;;;;;;31.77;29.10;;;21.30;84.00;;;;;;5084371;28;20661;-73
2024/04/07 11:06:26;;;;;;;36.03;32.57;;;21.30;84.20;;;;;;5080650;28;20572;-72
2024/04/07 11:08:58;;;;;;;41.37;37.80;;;21.30;84.40;;;;;;5079408;28;20184;-74
2024/04/07 11:11:28;;;;;;;45.77;42.03;;;21.20;84.50;;;;;;5078608;28;20186;-73
2024/04/07 11:13:56;;;;;;;56.27;52.20;;;21.20;84.70;;;;;;5081524;28;20187;-74
2024/04/07 11:16:24;;;;;;;60.43;55.50;;;21.20;84.80;;;;;;5083412;28;20179;-71
2024/04/07 11:18:51;;;;;;;61.03;56.23;;;21.10;85.00;;;;;;5082127;28;20183;-73
2024/04/07 11:21:19;;;;;;;64.80;60.33;;;21.10;85.20;;;;;;5082777;28;20194;-72
2024/04/07 11:23:47;;;;;;;66.03;61.33;;;21.10;85.20;;;;;;5075340;28;20194;-72
2024/04/07 11:26:15;;;;;;;59.47;55.43;;;21.00;85.00;;;;;;5071112;28;20175;-72
2024/04/07 11:28:43;;;;;;;55.33;51.73;;;20.90;84.80;;;;;;5075551;28;20182;-71
2024/04/07 11:31:11;;;;;;;53.60;49.87;;;20.90;84.60;;;;;;5076203;28;20568;-72
2024/04/07 11:33:38;;;;;;;54.20;50.83;;;20.90;84.20;;;;;;5080038;28;20197;-72
2024/04/07 11:36:06;;;;;;;48.60;45.43;;;20.90;83.70;;;;;;5070215;28;20176;-71
2024/04/07 11:38:34;;;;;;;47.77;44.53;;;20.80;83.20;;;;;;5077440;28;20222;-72
2024/04/07 11:41:01;;;;;;;45.93;43.07;;;20.80;82.70;;;;;;5076056;28;20183;-71
2024/04/07 11:43:29;;;;;;;42.03;38.87;;;20.80;82.20;;;;;;5082317;28;20305;-74
2024/04/07 11:45:56;;;;;;;43.97;41.37;;;20.80;82.10;;;;;;5077700;28;20172;-71
2024/04/07 11:48:26;;;;;;;43.00;40.40;;;20.70;82.00;;;;;;5077755;28;20296;-72
2024/04/07 11:50:53;;;;;;;42.60;39.87;;;20.70;82.10;;;;;;5075086;28;20175;-72
2024/04/07 11:53:21;;;;;;;40.90;37.90;;;20.70;82.10;;;;;;5082729;28;20179;-73
2024/04/07 11:55:48;;;;;;;41.37;38.73;;;20.70;82.20;;;;;;5073588;28;20722;-72
2024/04/07 11:58:16;;;;;;;43.23;40.43;;;20.70;82.40;;;;;;5079155;28;20178;-74
2024/04/07 12:00:43;;;;;;;40.53;37.70;;;20.60;82.40;;;;;;5080946;28;20183;-72
2024/04/07 12:03:10;;;;;;;41.90;39.27;;;20.60;82.60;;;;;;5076424;28;20219;-71
2024/04/07 12:05:39;;;;;;;50.37;46.87;;;20.50;82.70;;;;;;5070401;28;20241;-71
2024/04/07 12:08:07;;;;;;;50.50;47.23;;;20.50;83.00;;;;;;5080971;28;20266;-71
2024/04/07 12:10:35;;;;;;;53.27;50.07;;;20.50;83.30;;;;;;5075689;28;20179;-72
2024/04/07 12:13:02;;;;;;;49.83;46.67;;;20.40;83.20;;;;;;5071942;28;20520;-72
2024/04/07 12:15:30;;;;;;;49.07;45.97;;;20.30;83.40;;;;;;5076011;28;20589;-72
2024/04/07 12:17:58;;;;;;;50.77;47.77;;;20.30;83.40;;;;;;5077160;28;20664;-72
2024/04/07 12:20:26;;;;;;;52.40;49.07;;;20.30;83.50;;;;;;5077021;28;20199;-70
2024/04/07 12:22:53;;;;;;;53.13;50.07;;;20.20;83.80;;;;;;5080174;28;20293;-73
2024/04/07 12:25:27;;;;;;;54.30;50.57;;;20.20;83.80;;;;;;5078586;28;20530;-73
2024/04/07 12:27:54;;;;;;;56.57;52.73;;;20.10;83.90;;;;;;5078849;28;20214;-72
2024/04/07 12:30:22;;;;;;;57.00;53.20;;;20.10;84.20;;;;;;5079963;28;20274;-72
2024/04/07 12:32:49;;;;;;;55.70;52.07;;;20.00;84.10;;;;;;5088126;28;20198;-73
2024/04/07 12:35:16;;;;;;;59.37;55.57;;;20.00;84.20;;;;;;5083369;28;20635;-73
2024/04/07 12:37:44;;;;;;;60.27;56.87;;;20.00;84.50;;;;;;5070963;28;20179;-71
2024/04/07 12:40:11;;;;;;;63.67;59.73;;;19.90;84.50;;;;;;5103307;28;20581;-73
2024/04/07 12:42:40;;;;;;;56.70;53.37;;;19.80;84.50;;;;;;5091295;28;20214;-73
2024/04/07 12:45:07;;;;;;;60.00;56.60;;;19.80;84.70;;;;;;5087043;28;20566;-73
2024/04/07 12:47:35;;;;;;;66.07;62.13;;;19.80;84.80;;;;;;5092188;28;20175;-73
2024/04/07 12:50:04;;;;;;;69.20;65.20;;;19.80;85.10;;;;;;5087695;28;20214;-73